sensor_id;sensor_type;location;lat;lon;timestamp;temperature;humidity
21815;DHT22;11069;48.988;8.450;2022-08-11T00:00:37;18.80;72.00
21815;DHT22;11069;48.988;8.450;2022-08-11T00:03:09;18.90;72.80
21815;DHT22;11069;48.988;8.450;2022-08-11T00:05:50;19.00;72.90
21815;DHT22;11069;48.988;8.450;2022-08-11T00:08:24;18.90;72.90
21815;DHT22;11069;48.988;8.450;2022-08-11T00:11:01;18.90;73.30
21815;DHT22;11069;48.988;8.450;2022-08-11T00:13:33;18.90;71.90
21815;DHT22;11069;48.988;8.450;2022-08-11T00:16:00;19.00;70.70
21815;DHT22;11069;48.988;8.450;2022-08-11T00:18:27;19.20;70.40
21815;DHT22;11069;48.988;8.450;2022-08-11T00:20:57;19.40;69.60
21815;DHT22;11069;48.988;8.450;2022-08-11T00:23:24;19.60;68.90
21815;DHT22;11069;48.988;8.450;2022-08-11T00:25:51;19.70;68.90
21815;DHT22;11069;48.988;8.450;2022-08-11T00:28:32;19.60;69.10
21815;DHT22;11069;48.988;8.450;2022-08-11T00:31:01;19.40;69.80
21815;DHT22;11069;48.988;8.450;2022-08-11T00:33:39;19.20;71.40
21815;DHT22;11069;48.988;8.450;2022-08-11T00:36:06;19.10;71.90
21815;DHT22;11069;48.988;8.450;2022-08-11T00:38:36;19.00;72.20
21815;DHT22;11069;48.988;8.450;2022-08-11T00:41:28;19.00;72.70
21815;DHT22;11069;48.988;8.450;2022-08-11T00:44:41;18.80;72.60
21815;DHT22;11069;48.988;8.450;2022-08-11T00:59:18;17.70;77.80
21815;DHT22;11069;48.988;8.450;2022-08-11T01:01:58;17.50;78.80
21815;DHT22;11069;48.988;8.450;2022-08-11T01:07:21;17.40;78.90
21815;DHT22;11069;48.988;8.450;2022-08-11T01:12:20;17.60;77.70
21815;DHT22;11069;48.988;8.450;2022-08-11T01:42:37;16.90;82.90
21815;DHT22;11069;48.988;8.450;2022-08-11T01:50:56;17.20;81.50
21815;DHT22;11069;48.988;8.450;2022-08-11T01:53:34;17.20;81.00
21815;DHT22;11069;48.988;8.450;2022-08-11T01:56:32;17.20;82.10
21815;DHT22;11069;48.988;8.450;2022-08-11T01:59:16;17.20;81.90
21815;DHT22;11069;48.988;8.450;2022-08-11T02:05:06;17.10;81.70
21815;DHT22;11069;48.988;8.450;2022-08-11T02:07:54;17.10;82.40
21815;DHT22;11069;48.988;8.450;2022-08-11T02:10:35;17.10;82.80
21815;DHT22;11069;48.988;8.450;2022-08-11T02:19:39;16.80;83.60
21815;DHT22;11069;48.988;8.450;2022-08-11T02:26:01;16.60;85.60
21815;DHT22;11069;48.988;8.450;2022-08-11T02:28:54;16.50;86.50
21815;DHT22;11069;48.988;8.450;2022-08-11T02:37:39;16.10;88.60
21815;DHT22;11069;48.988;8.450;2022-08-11T02:45:27;16.00;90.10
21815;DHT22;11069;48.988;8.450;2022-08-11T02:48:28;15.90;90.10
21815;DHT22;11069;48.988;8.450;2022-08-11T02:53:48;15.70;90.40
21815;DHT22;11069;48.988;8.450;2022-08-11T02:59:16;15.70;91.00
21815;DHT22;11069;48.988;8.450;2022-08-11T03:13:44;15.60;91.40
21815;DHT22;11069;48.988;8.450;2022-08-11T03:16:55;15.60;92.00
21815;DHT22;11069;48.988;8.450;2022-08-11T03:23:02;15.40;92.70
21815;DHT22;11069;48.988;8.450;2022-08-11T03:26:00;15.30;92.90
21815;DHT22;11069;48.988;8.450;2022-08-11T03:31:06;15.10;93.90
21815;DHT22;11069;48.988;8.450;2022-08-11T03:33:43;15.10;94.10
21815;DHT22;11069;48.988;8.450;2022-08-11T03:39:44;15.10;94.10
21815;DHT22;11069;48.988;8.450;2022-08-11T03:48:08;15.30;94.30
21815;DHT22;11069;48.988;8.450;2022-08-11T03:57:07;15.20;94.40
21815;DHT22;11069;48.988;8.450;2022-08-11T04:06:06;15.60;93.20
21815;DHT22;11069;48.988;8.450;2022-08-11T04:09:05;15.70;93.00
21815;DHT22;11069;48.988;8.450;2022-08-11T04:52:04;15.20;96.20
21815;DHT22;11069;48.988;8.450;2022-08-11T05:01:35;15.50;95.90
21815;DHT22;11069;48.988;8.450;2022-08-11T05:10:27;15.80;95.70
21815;DHT22;11069;48.988;8.450;2022-08-11T05:13:04;15.90;95.50
21815;DHT22;11069;48.988;8.450;2022-08-11T05:16:03;15.90;95.40
21815;DHT22;11069;48.988;8.450;2022-08-11T05:18:53;16.10;94.80
21815;DHT22;11069;48.988;8.450;2022-08-11T05:21:41;16.30;94.20
21815;DHT22;11069;48.988;8.450;2022-08-11T05:24:30;16.40;94.00
21815;DHT22;11069;48.988;8.450;2022-08-11T05:27:18;16.50;93.70
21815;DHT22;11069;48.988;8.450;2022-08-11T05:30:04;16.60;93.50
21815;DHT22;11069;48.988;8.450;2022-08-11T05:33:11;16.70;93.20
21815;DHT22;11069;48.988;8.450;2022-08-11T05:36:21;16.80;92.90
21815;DHT22;11069;48.988;8.450;2022-08-11T05:39:04;17.00;92.50
21815;DHT22;11069;48.988;8.450;2022-08-11T05:41:50;17.10;92.10
21815;DHT22;11069;48.988;8.450;2022-08-11T05:44:44;17.20;91.70
21815;DHT22;11069;48.988;8.450;2022-08-11T05:47:28;17.20;91.90
21815;DHT22;11069;48.988;8.450;2022-08-11T05:50:15;17.30;91.50
21815;DHT22;11069;48.988;8.450;2022-08-11T05:53:01;17.50;91.20
21815;DHT22;11069;48.988;8.450;2022-08-11T05:55:46;17.60;91.40
21815;DHT22;11069;48.988;8.450;2022-08-11T05:58:37;17.70;91.10
21815;DHT22;11069;48.988;8.450;2022-08-11T06:01:03;17.70;90.80
21815;DHT22;11069;48.988;8.450;2022-08-11T06:03:32;17.80;90.70
21815;DHT22;11069;48.988;8.450;2022-08-11T06:06:21;17.90;90.60
21815;DHT22;11069;48.988;8.450;2022-08-11T06:08:48;18.00;91.10
21815;DHT22;11069;48.988;8.450;2022-08-11T06:11:15;18.20;90.60
21815;DHT22;11069;48.988;8.450;2022-08-11T06:13:44;18.30;90.00
21815;DHT22;11069;48.988;8.450;2022-08-11T06:16:13;18.40;89.50
21815;DHT22;11069;48.988;8.450;2022-08-11T06:18:45;18.60;88.60
21815;DHT22;11069;48.988;8.450;2022-08-11T06:21:12;18.80;88.10
21815;DHT22;11069;48.988;8.450;2022-08-11T06:23:38;19.00;86.70
21815;DHT22;11069;48.988;8.450;2022-08-11T06:26:11;19.10;85.00
21815;DHT22;11069;48.988;8.450;2022-08-11T06:28:39;19.30;85.40
21815;DHT22;11069;48.988;8.450;2022-08-11T06:31:31;19.50;84.20
21815;DHT22;11069;48.988;8.450;2022-08-11T06:34:05;19.60;83.40
21815;DHT22;11069;48.988;8.450;2022-08-11T06:36:54;19.90;82.20
21815;DHT22;11069;48.988;8.450;2022-08-11T06:42:04;21.10;78.50
21815;DHT22;11069;48.988;8.450;2022-08-11T06:45:00;22.00;77.70
21815;DHT22;11069;48.988;8.450;2022-08-11T06:47:29;22.40;75.60
21815;DHT22;11069;48.988;8.450;2022-08-11T06:49:56;22.50;74.10
21815;DHT22;11069;48.988;8.450;2022-08-11T06:52:42;22.50;73.10
21815;DHT22;11069;48.988;8.450;2022-08-11T06:55:13;22.30;74.00
21815;DHT22;11069;48.988;8.450;2022-08-11T06:58:00;22.40;73.90
21815;DHT22;11069;48.988;8.450;2022-08-11T07:00:47;22.50;73.90
21815;DHT22;11069;48.988;8.450;2022-08-11T07:03:16;22.50;74.10
21815;DHT22;11069;48.988;8.450;2022-08-11T07:05:47;22.60;74.10
21815;DHT22;11069;48.988;8.450;2022-08-11T07:11:26;22.70;73.40
21815;DHT22;11069;48.988;8.450;2022-08-11T07:14:20;22.70;74.10
21815;DHT22;11069;48.988;8.450;2022-08-11T07:17:09;23.00;72.50
21815;DHT22;11069;48.988;8.450;2022-08-11T07:19:36;23.30;71.70
21815;DHT22;11069;48.988;8.450;2022-08-11T07:22:23;23.60;71.90
21815;DHT22;11069;48.988;8.450;2022-08-11T07:25:14;23.70;69.90
21815;DHT22;11069;48.988;8.450;2022-08-11T07:28:06;24.10;68.80
21815;DHT22;11069;48.988;8.450;2022-08-11T07:30:56;24.40;68.40
21815;DHT22;11069;48.988;8.450;2022-08-11T07:33:27;24.60;67.30
21815;DHT22;11069;48.988;8.450;2022-08-11T07:35:56;24.70;67.10
21815;DHT22;11069;48.988;8.450;2022-08-11T07:38:34;24.40;67.10
21815;DHT22;11069;48.988;8.450;2022-08-11T07:41:14;24.80;66.80
21815;DHT22;11069;48.988;8.450;2022-08-11T07:43:41;24.80;67.60
21815;DHT22;11069;48.988;8.450;2022-08-11T07:46:07;25.10;67.00
21815;DHT22;11069;48.988;8.450;2022-08-11T07:48:54;25.30;66.50
21815;DHT22;11069;48.988;8.450;2022-08-11T07:51:40;25.60;65.10
21815;DHT22;11069;48.988;8.450;2022-08-11T07:54:26;25.60;65.90
21815;DHT22;11069;48.988;8.450;2022-08-11T07:56:52;26.00;64.20
21815;DHT22;11069;48.988;8.450;2022-08-11T07:59:19;26.30;64.80
21815;DHT22;11069;48.988;8.450;2022-08-11T08:02:03;26.50;63.90
21815;DHT22;11069;48.988;8.450;2022-08-11T08:04:49;26.60;64.00
21815;DHT22;11069;48.988;8.450;2022-08-11T08:07:34;26.60;62.80
21815;DHT22;11069;48.988;8.450;2022-08-11T08:10:20;27.10;60.70
21815;DHT22;11069;48.988;8.450;2022-08-11T08:13:06;27.40;59.20
21815;DHT22;11069;48.988;8.450;2022-08-11T08:15:52;27.70;58.60
21815;DHT22;11069;48.988;8.450;2022-08-11T08:18:37;27.90;58.40
21815;DHT22;11069;48.988;8.450;2022-08-11T08:21:05;28.10;58.50
21815;DHT22;11069;48.988;8.450;2022-08-11T08:23:43;28.20;55.80
21815;DHT22;11069;48.988;8.450;2022-08-11T08:26:14;28.00;55.70
21815;DHT22;11069;48.988;8.450;2022-08-11T08:29:04;28.20;56.50
21815;DHT22;11069;48.988;8.450;2022-08-11T08:31:50;28.40;57.50
21815;DHT22;11069;48.988;8.450;2022-08-11T08:34:16;28.30;58.10
21815;DHT22;11069;48.988;8.450;2022-08-11T08:36:48;28.00;59.30
21815;DHT22;11069;48.988;8.450;2022-08-11T08:39:18;28.10;58.60
21815;DHT22;11069;48.988;8.450;2022-08-11T08:41:45;28.40;55.90
21815;DHT22;11069;48.988;8.450;2022-08-11T08:44:16;28.50;56.60
21815;DHT22;11069;48.988;8.450;2022-08-11T08:46:47;28.50;55.80
21815;DHT22;11069;48.988;8.450;2022-08-11T08:49:14;28.70;55.40
21815;DHT22;11069;48.988;8.450;2022-08-11T08:51:41;28.80;57.80
21815;DHT22;11069;48.988;8.450;2022-08-11T08:54:18;28.80;56.90
21815;DHT22;11069;48.988;8.450;2022-08-11T08:56:45;28.60;56.30
21815;DHT22;11069;48.988;8.450;2022-08-11T08:59:13;28.20;56.40
21815;DHT22;11069;48.988;8.450;2022-08-11T09:01:50;28.20;55.80
21815;DHT22;11069;48.988;8.450;2022-08-11T09:04:17;28.40;55.00
21815;DHT22;11069;48.988;8.450;2022-08-11T09:06:45;28.40;54.40
21815;DHT22;11069;48.988;8.450;2022-08-11T09:09:12;28.70;55.60
21815;DHT22;11069;48.988;8.450;2022-08-11T09:11:40;29.00;53.80
21815;DHT22;11069;48.988;8.450;2022-08-11T09:16:47;29.00;54.60
21815;DHT22;11069;48.988;8.450;2022-08-11T09:19:16;28.80;55.70
21815;DHT22;11069;48.988;8.450;2022-08-11T09:21:49;29.30;54.10
21815;DHT22;11069;48.988;8.450;2022-08-11T09:24:35;28.90;55.10
21815;DHT22;11069;48.988;8.450;2022-08-11T09:27:21;28.90;55.40
21815;DHT22;11069;48.988;8.450;2022-08-11T09:29:47;29.20;55.00
21815;DHT22;11069;48.988;8.450;2022-08-11T09:32:13;29.00;54.70
21815;DHT22;11069;48.988;8.450;2022-08-11T09:34:40;29.30;53.90
21815;DHT22;11069;48.988;8.450;2022-08-11T09:37:08;29.30;54.00
21815;DHT22;11069;48.988;8.450;2022-08-11T09:39:53;29.50;53.40
21815;DHT22;11069;48.988;8.450;2022-08-11T09:42:39;29.60;54.70
21815;DHT22;11069;48.988;8.450;2022-08-11T09:45:24;30.10;55.10
21815;DHT22;11069;48.988;8.450;2022-08-11T09:47:50;29.60;55.70
21815;DHT22;11069;48.988;8.450;2022-08-11T09:50:17;29.50;56.00
21815;DHT22;11069;48.988;8.450;2022-08-11T09:52:44;28.90;55.20
21815;DHT22;11069;48.988;8.450;2022-08-11T09:55:13;28.70;53.80
21815;DHT22;11069;48.988;8.450;2022-08-11T09:57:44;27.90;55.90
21815;DHT22;11069;48.988;8.450;2022-08-11T10:00:34;28.00;56.90
21815;DHT22;11069;48.988;8.450;2022-08-11T10:03:05;28.60;56.10
21815;DHT22;11069;48.988;8.450;2022-08-11T10:05:32;28.40;54.50
21815;DHT22;11069;48.988;8.450;2022-08-11T10:08:17;28.40;55.10
21815;DHT22;11069;48.988;8.450;2022-08-11T10:10:45;28.00;55.00
21815;DHT22;11069;48.988;8.450;2022-08-11T10:13:18;28.20;55.80
21815;DHT22;11069;48.988;8.450;2022-08-11T10:15:55;28.50;54.60
21815;DHT22;11069;48.988;8.450;2022-08-11T10:18:42;29.00;54.90
21815;DHT22;11069;48.988;8.450;2022-08-11T10:21:22;28.80;54.10
21815;DHT22;11069;48.988;8.450;2022-08-11T10:23:51;29.10;53.30
21815;DHT22;11069;48.988;8.450;2022-08-11T10:26:36;29.30;53.90
21815;DHT22;11069;48.988;8.450;2022-08-11T10:29:35;29.20;55.10
21815;DHT22;11069;48.988;8.450;2022-08-11T10:32:24;29.70;52.10
21815;DHT22;11069;48.988;8.450;2022-08-11T10:35:09;30.00;53.90
21815;DHT22;11069;48.988;8.450;2022-08-11T10:37:38;30.40;51.50
21815;DHT22;11069;48.988;8.450;2022-08-11T10:40:06;30.70;50.20
21815;DHT22;11069;48.988;8.450;2022-08-11T10:42:33;31.20;53.20
21815;DHT22;11069;48.988;8.450;2022-08-11T10:45:18;31.20;50.60
21815;DHT22;11069;48.988;8.450;2022-08-11T10:48:04;31.50;48.40
21815;DHT22;11069;48.988;8.450;2022-08-11T10:50:31;31.80;47.80
21815;DHT22;11069;48.988;8.450;2022-08-11T10:53:17;31.90;49.30
21815;DHT22;11069;48.988;8.450;2022-08-11T10:56:03;31.10;49.10
21815;DHT22;11069;48.988;8.450;2022-08-11T10:58:48;31.30;49.50
21815;DHT22;11069;48.988;8.450;2022-08-11T11:01:32;31.60;47.90
21815;DHT22;11069;48.988;8.450;2022-08-11T11:04:05;31.40;46.40
21815;DHT22;11069;48.988;8.450;2022-08-11T11:06:47;31.80;45.70
21815;DHT22;11069;48.988;8.450;2022-08-11T11:09:18;31.90;44.40
21815;DHT22;11069;48.988;8.450;2022-08-11T11:11:52;32.20;43.40
21815;DHT22;11069;48.988;8.450;2022-08-11T11:14:40;32.00;43.40
21815;DHT22;11069;48.988;8.450;2022-08-11T11:17:36;32.60;45.20
21815;DHT22;11069;48.988;8.450;2022-08-11T11:20:34;32.90;43.00
21815;DHT22;11069;48.988;8.450;2022-08-11T11:32:17;33.00;44.60
21815;DHT22;11069;48.988;8.450;2022-08-11T11:35:01;32.30;42.70
21815;DHT22;11069;48.988;8.450;2022-08-11T11:37:32;33.00;42.10
21815;DHT22;11069;48.988;8.450;2022-08-11T11:40:00;32.60;44.50
21815;DHT22;11069;48.988;8.450;2022-08-11T11:42:27;31.90;45.60
21815;DHT22;11069;48.988;8.450;2022-08-11T11:44:54;32.40;42.80
21815;DHT22;11069;48.988;8.450;2022-08-11T11:47:20;32.70;43.20
21815;DHT22;11069;48.988;8.450;2022-08-11T11:49:47;32.10;43.60
21815;DHT22;11069;48.988;8.450;2022-08-11T11:52:16;31.60;45.20
21815;DHT22;11069;48.988;8.450;2022-08-11T11:54:45;31.50;44.50
21815;DHT22;11069;48.988;8.450;2022-08-11T11:57:15;31.90;44.10
21815;DHT22;11069;48.988;8.450;2022-08-11T12:00:00;32.80;43.40
21815;DHT22;11069;48.988;8.450;2022-08-11T12:02:45;33.50;41.10
21815;DHT22;11069;48.988;8.450;2022-08-11T12:05:11;33.70;41.70
21815;DHT22;11069;48.988;8.450;2022-08-11T12:07:37;33.50;42.60
21815;DHT22;11069;48.988;8.450;2022-08-11T12:10:23;33.60;42.70
21815;DHT22;11069;48.988;8.450;2022-08-11T12:12:49;33.40;40.50
21815;DHT22;11069;48.988;8.450;2022-08-11T12:15:34;33.50;41.70
21815;DHT22;11069;48.988;8.450;2022-08-11T12:18:01;33.40;42.40
21815;DHT22;11069;48.988;8.450;2022-08-11T12:20:28;33.20;41.40
21815;DHT22;11069;48.988;8.450;2022-08-11T12:22:57;33.60;41.10
21815;DHT22;11069;48.988;8.450;2022-08-11T12:25:43;33.40;39.10
21815;DHT22;11069;48.988;8.450;2022-08-11T12:28:30;32.70;41.50
21815;DHT22;11069;48.988;8.450;2022-08-11T12:30:57;32.50;43.00
21815;DHT22;11069;48.988;8.450;2022-08-11T12:33:23;32.30;42.50
21815;DHT22;11069;48.988;8.450;2022-08-11T12:35:57;32.20;41.70
21815;DHT22;11069;48.988;8.450;2022-08-11T12:38:24;32.20;41.90
21815;DHT22;11069;48.988;8.450;2022-08-11T12:40:51;32.70;42.30
21815;DHT22;11069;48.988;8.450;2022-08-11T12:43:36;32.80;41.30
21815;DHT22;11069;48.988;8.450;2022-08-11T12:46:24;33.00;42.00
21815;DHT22;11069;48.988;8.450;2022-08-11T12:48:58;33.80;42.30
21815;DHT22;11069;48.988;8.450;2022-08-11T12:51:53;33.20;40.80
21815;DHT22;11069;48.988;8.450;2022-08-11T12:57:13;34.60;40.10
21815;DHT22;11069;48.988;8.450;2022-08-11T13:00:06;34.50;39.10
21815;DHT22;11069;48.988;8.450;2022-08-11T13:02:50;34.10;39.00
21815;DHT22;11069;48.988;8.450;2022-08-11T13:05:35;34.30;40.10
21815;DHT22;11069;48.988;8.450;2022-08-11T13:08:02;35.70;38.40
21815;DHT22;11069;48.988;8.450;2022-08-11T13:10:31;34.80;38.80
21815;DHT22;11069;48.988;8.450;2022-08-11T13:13:17;35.20;38.30
21815;DHT22;11069;48.988;8.450;2022-08-11T13:15:47;36.80;38.30
21815;DHT22;11069;48.988;8.450;2022-08-11T13:18:20;37.00;35.80
21815;DHT22;11069;48.988;8.450;2022-08-11T13:20:50;36.10;37.50
21815;DHT22;11069;48.988;8.450;2022-08-11T13:23:17;36.90;36.80
21815;DHT22;11069;48.988;8.450;2022-08-11T13:25:43;37.20;36.50
21815;DHT22;11069;48.988;8.450;2022-08-11T13:28:09;36.90;36.30
21815;DHT22;11069;48.988;8.450;2022-08-11T13:30:37;35.80;37.10
21815;DHT22;11069;48.988;8.450;2022-08-11T13:33:21;35.10;36.50
21815;DHT22;11069;48.988;8.450;2022-08-11T13:35:48;36.70;35.60
21815;DHT22;11069;48.988;8.450;2022-08-11T13:38:14;37.60;37.70
21815;DHT22;11069;48.988;8.450;2022-08-11T13:40:40;37.60;35.20
21815;DHT22;11069;48.988;8.450;2022-08-11T13:43:06;37.30;36.40
21815;DHT22;11069;48.988;8.450;2022-08-11T13:45:33;36.40;34.00
21815;DHT22;11069;48.988;8.450;2022-08-11T13:48:00;36.30;37.30
21815;DHT22;11069;48.988;8.450;2022-08-11T13:50:26;38.00;34.70
21815;DHT22;11069;48.988;8.450;2022-08-11T13:53:10;38.20;34.50
21815;DHT22;11069;48.988;8.450;2022-08-11T13:55:38;37.60;34.80
21815;DHT22;11069;48.988;8.450;2022-08-11T13:58:04;37.10;34.70
21815;DHT22;11069;48.988;8.450;2022-08-11T14:00:30;36.80;35.70
21815;DHT22;11069;48.988;8.450;2022-08-11T14:02:56;35.90;34.90
21815;DHT22;11069;48.988;8.450;2022-08-11T14:05:24;36.30;35.70
21815;DHT22;11069;48.988;8.450;2022-08-11T14:07:51;37.50;35.40
21815;DHT22;11069;48.988;8.450;2022-08-11T14:10:20;38.00;34.30
21815;DHT22;11069;48.988;8.450;2022-08-11T14:12:50;39.10;32.70
21815;DHT22;11069;48.988;8.450;2022-08-11T14:15:35;38.60;33.40
21815;DHT22;11069;48.988;8.450;2022-08-11T14:18:06;39.40;32.90
21815;DHT22;11069;48.988;8.450;2022-08-11T14:20:33;37.60;32.70
21815;DHT22;11069;48.988;8.450;2022-08-11T14:23:19;37.00;33.40
21815;DHT22;11069;48.988;8.450;2022-08-11T14:25:46;36.90;34.10
21815;DHT22;11069;48.988;8.450;2022-08-11T14:28:31;36.40;35.00
21815;DHT22;11069;48.988;8.450;2022-08-11T14:30:58;36.90;34.10
21815;DHT22;11069;48.988;8.450;2022-08-11T14:33:24;35.40;35.50
21815;DHT22;11069;48.988;8.450;2022-08-11T14:35:49;35.40;35.80
21815;DHT22;11069;48.988;8.450;2022-08-11T14:38:15;36.20;35.90
21815;DHT22;11069;48.988;8.450;2022-08-11T14:40:42;36.20;36.10
21815;DHT22;11069;48.988;8.450;2022-08-11T14:43:26;35.70;35.10
21815;DHT22;11069;48.988;8.450;2022-08-11T14:46:10;34.70;34.60
21815;DHT22;11069;48.988;8.450;2022-08-11T14:48:54;35.00;36.50
21815;DHT22;11069;48.988;8.450;2022-08-11T14:51:21;37.10;33.00
21815;DHT22;11069;48.988;8.450;2022-08-11T14:53:46;38.10;32.40
21815;DHT22;11069;48.988;8.450;2022-08-11T14:56:12;38.80;32.10
21815;DHT22;11069;48.988;8.450;2022-08-11T14:58:57;38.90;32.30
21815;DHT22;11069;48.988;8.450;2022-08-11T15:01:23;37.60;34.10
21815;DHT22;11069;48.988;8.450;2022-08-11T15:04:24;37.60;31.70
21815;DHT22;11069;48.988;8.450;2022-08-11T15:06:50;35.60;35.70
21815;DHT22;11069;48.988;8.450;2022-08-11T15:09:16;35.00;35.10
21815;DHT22;11069;48.988;8.450;2022-08-11T15:11:42;35.90;34.10
21815;DHT22;11069;48.988;8.450;2022-08-11T15:14:26;36.70;36.40
21815;DHT22;11069;48.988;8.450;2022-08-11T15:17:11;36.00;35.30
21815;DHT22;11069;48.988;8.450;2022-08-11T15:19:38;35.80;35.40
21815;DHT22;11069;48.988;8.450;2022-08-11T15:22:24;37.10;34.60
21815;DHT22;11069;48.988;8.450;2022-08-11T15:25:09;36.70;34.20
21815;DHT22;11069;48.988;8.450;2022-08-11T15:27:34;37.00;33.30
21815;DHT22;11069;48.988;8.450;2022-08-11T15:30:19;36.70;34.20
21815;DHT22;11069;48.988;8.450;2022-08-11T15:33:04;36.90;33.30
21815;DHT22;11069;48.988;8.450;2022-08-11T15:35:50;36.90;33.70
21815;DHT22;11069;48.988;8.450;2022-08-11T15:38:34;36.10;33.60
21815;DHT22;11069;48.988;8.450;2022-08-11T15:41:04;35.00;34.80
21815;DHT22;11069;48.988;8.450;2022-08-11T15:43:51;34.90;38.40
21815;DHT22;11069;48.988;8.450;2022-08-11T15:46:40;35.10;35.60
21815;DHT22;11069;48.988;8.450;2022-08-11T15:49:10;36.80;34.30
21815;DHT22;11069;48.988;8.450;2022-08-11T15:51:39;36.50;34.20
21815;DHT22;11069;48.988;8.450;2022-08-11T15:54:28;36.10;33.90
21815;DHT22;11069;48.988;8.450;2022-08-11T15:56:52;34.20;38.40
21815;DHT22;11069;48.988;8.450;2022-08-11T15:59:19;34.40;37.40
21815;DHT22;11069;48.988;8.450;2022-08-11T16:02:04;34.60;37.20
21815;DHT22;11069;48.988;8.450;2022-08-11T16:04:50;35.30;36.30
21815;DHT22;11069;48.988;8.450;2022-08-11T16:07:18;34.20;36.20
21815;DHT22;11069;48.988;8.450;2022-08-11T16:09:50;33.80;37.80
21815;DHT22;11069;48.988;8.450;2022-08-11T16:12:36;34.10;36.80
21815;DHT22;11069;48.988;8.450;2022-08-11T16:15:03;34.90;38.50
21815;DHT22;11069;48.988;8.450;2022-08-11T16:17:51;35.90;33.40
21815;DHT22;11069;48.988;8.450;2022-08-11T16:20:21;35.90;35.40
21815;DHT22;11069;48.988;8.450;2022-08-11T16:22:48;35.30;36.10
21815;DHT22;11069;48.988;8.450;2022-08-11T16:25:17;35.70;33.50
21815;DHT22;11069;48.988;8.450;2022-08-11T16:27:48;34.50;36.30
21815;DHT22;11069;48.988;8.450;2022-08-11T16:30:14;33.80;35.10
21815;DHT22;11069;48.988;8.450;2022-08-11T16:32:40;33.60;36.50
21815;DHT22;11069;48.988;8.450;2022-08-11T16:35:12;33.50;38.10
21815;DHT22;11069;48.988;8.450;2022-08-11T16:37:57;33.80;33.90
21815;DHT22;11069;48.988;8.450;2022-08-11T16:40:42;34.00;36.30
21815;DHT22;11069;48.988;8.450;2022-08-11T16:43:11;33.90;37.00
21815;DHT22;11069;48.988;8.450;2022-08-11T16:45:56;34.60;37.40
21815;DHT22;11069;48.988;8.450;2022-08-11T16:48:41;34.10;34.60
21815;DHT22;11069;48.988;8.450;2022-08-11T16:51:10;33.30;37.10
21815;DHT22;11069;48.988;8.450;2022-08-11T16:53:36;32.20;38.50
21815;DHT22;11069;48.988;8.450;2022-08-11T16:56:03;32.00;38.70
21815;DHT22;11069;48.988;8.450;2022-08-11T16:58:30;31.30;39.70
21815;DHT22;11069;48.988;8.450;2022-08-11T17:01:15;30.70;40.90
21815;DHT22;11069;48.988;8.450;2022-08-11T17:03:43;30.10;40.90
21815;DHT22;11069;48.988;8.450;2022-08-11T17:06:27;30.10;41.00
21815;DHT22;11069;48.988;8.450;2022-08-11T17:09:12;30.20;41.60
21815;DHT22;11069;48.988;8.450;2022-08-11T17:12:00;30.20;42.20
21815;DHT22;11069;48.988;8.450;2022-08-11T17:14:50;30.10;40.90
21815;DHT22;11069;48.988;8.450;2022-08-11T17:17:20;30.10;42.00
21815;DHT22;11069;48.988;8.450;2022-08-11T17:19:49;29.70;41.90
21815;DHT22;11069;48.988;8.450;2022-08-11T17:22:17;29.60;42.10
21815;DHT22;11069;48.988;8.450;2022-08-11T17:25:02;29.20;43.30
21815;DHT22;11069;48.988;8.450;2022-08-11T17:27:28;29.00;43.10
21815;DHT22;11069;48.988;8.450;2022-08-11T17:29:55;28.90;43.60
21815;DHT22;11069;48.988;8.450;2022-08-11T17:32:22;28.90;43.90
21815;DHT22;11069;48.988;8.450;2022-08-11T17:35:11;28.90;42.90
21815;DHT22;11069;48.988;8.450;2022-08-11T17:38:04;28.70;43.90
21815;DHT22;11069;48.988;8.450;2022-08-11T17:40:32;28.60;43.40
21815;DHT22;11069;48.988;8.450;2022-08-11T17:42:58;28.40;44.50
21815;DHT22;11069;48.988;8.450;2022-08-11T17:45:43;28.20;46.00
21815;DHT22;11069;48.988;8.450;2022-08-11T17:48:29;28.10;45.20
21815;DHT22;11069;48.988;8.450;2022-08-11T17:50:56;28.00;45.90
21815;DHT22;11069;48.988;8.450;2022-08-11T17:53:23;27.80;47.10
21815;DHT22;11069;48.988;8.450;2022-08-11T17:56:07;27.80;46.20
21815;DHT22;11069;48.988;8.450;2022-08-11T17:58:52;27.70;46.40
21815;DHT22;11069;48.988;8.450;2022-08-11T18:01:37;27.50;46.60
21815;DHT22;11069;48.988;8.450;2022-08-11T18:04:04;27.40;47.50
21815;DHT22;11069;48.988;8.450;2022-08-11T18:06:30;27.30;46.60
21815;DHT22;11069;48.988;8.450;2022-08-11T18:08:56;27.20;47.20
21815;DHT22;11069;48.988;8.450;2022-08-11T18:11:41;27.10;47.60
21815;DHT22;11069;48.988;8.450;2022-08-11T18:14:26;27.00;48.10
21815;DHT22;11069;48.988;8.450;2022-08-11T18:17:11;26.80;48.60
21815;DHT22;11069;48.988;8.450;2022-08-11T18:19:55;26.80;48.30
21815;DHT22;11069;48.988;8.450;2022-08-11T18:22:40;26.60;49.10
21815;DHT22;11069;48.988;8.450;2022-08-11T18:25:26;26.50;49.50
21815;DHT22;11069;48.988;8.450;2022-08-11T18:28:12;26.30;50.00
21815;DHT22;11069;48.988;8.450;2022-08-11T18:30:58;26.20;50.30
21815;DHT22;11069;48.988;8.450;2022-08-11T18:33:45;26.00;49.90
21815;DHT22;11069;48.988;8.450;2022-08-11T18:36:30;25.80;50.40
21815;DHT22;11069;48.988;8.450;2022-08-11T18:39:16;25.70;50.20
21815;DHT22;11069;48.988;8.450;2022-08-11T18:42:04;25.70;50.90
21815;DHT22;11069;48.988;8.450;2022-08-11T18:44:48;25.60;50.80
21815;DHT22;11069;48.988;8.450;2022-08-11T18:47:33;25.50;51.40
21815;DHT22;11069;48.988;8.450;2022-08-11T18:50:18;25.30;51.30
21815;DHT22;11069;48.988;8.450;2022-08-11T18:53:03;25.30;51.70
21815;DHT22;11069;48.988;8.450;2022-08-11T18:55:48;25.20;51.90
21815;DHT22;11069;48.988;8.450;2022-08-11T18:58:33;25.10;52.00
21815;DHT22;11069;48.988;8.450;2022-08-11T19:01:18;25.00;51.10
21815;DHT22;11069;48.988;8.450;2022-08-11T19:04:04;24.90;52.30
21815;DHT22;11069;48.988;8.450;2022-08-11T19:06:49;24.90;51.60
21815;DHT22;11069;48.988;8.450;2022-08-11T19:09:35;24.80;52.00
21815;DHT22;11069;48.988;8.450;2022-08-11T19:12:21;24.60;52.10
21815;DHT22;11069;48.988;8.450;2022-08-11T19:15:06;24.50;51.80
21815;DHT22;11069;48.988;8.450;2022-08-11T19:17:51;24.40;52.50
21815;DHT22;11069;48.988;8.450;2022-08-11T19:20:36;24.20;52.60
21815;DHT22;11069;48.988;8.450;2022-08-11T19:23:26;24.10;53.30
21815;DHT22;11069;48.988;8.450;2022-08-11T19:26:13;24.00;53.30
21815;DHT22;11069;48.988;8.450;2022-08-11T19:28:58;23.90;54.20
21815;DHT22;11069;48.988;8.450;2022-08-11T19:31:43;23.80;53.50
21815;DHT22;11069;48.988;8.450;2022-08-11T19:34:27;23.70;53.90
21815;DHT22;11069;48.988;8.450;2022-08-11T19:37:13;23.60;54.20
21815;DHT22;11069;48.988;8.450;2022-08-11T19:40:00;23.50;54.30
21815;DHT22;11069;48.988;8.450;2022-08-11T19:42:45;23.40;55.80
21815;DHT22;11069;48.988;8.450;2022-08-11T19:45:30;23.30;54.70
21815;DHT22;11069;48.988;8.450;2022-08-11T19:48:15;23.30;55.40